createdAt,value
2023-03-10T00:00:12.678Z,3.83
2023-03-10T00:02:39.342Z,3.91
2023-03-10T00:05:06.315Z,3.71
2023-03-10T00:07:32.773Z,3.65
2023-03-10T00:09:59.207Z,3.44
2023-03-10T00:12:27.933Z,3.63
2023-03-10T00:14:55.393Z,3.86
2023-03-10T00:17:22.245Z,3.80
2023-03-10T00:19:48.686Z,4.07
2023-03-10T00:22:15.155Z,3.69
2023-03-10T00:24:41.595Z,3.81
2023-03-10T00:27:08.076Z,3.72
2023-03-10T00:29:34.571Z,3.49
2023-03-10T00:32:01.250Z,3.40
2023-03-10T00:34:27.726Z,3.25
2023-03-10T00:36:54.203Z,2.99
2023-03-10T00:39:20.653Z,2.77
2023-03-10T00:41:48.498Z,3.60
2023-03-10T00:44:16.224Z,3.13
2023-03-10T00:46:42.813Z,3.21
2023-03-10T00:49:10.932Z,3.18
2023-03-10T00:51:37.375Z,3.00
2023-03-10T00:54:03.967Z,3.44
2023-03-10T00:56:30.946Z,3.44
2023-03-10T00:59:00.523Z,3.39
2023-03-10T01:01:29.358Z,3.25
2023-03-10T01:03:57.645Z,3.35
2023-03-10T01:06:24.996Z,3.89
2023-03-10T01:08:51.601Z,3.49
2023-03-10T01:11:21.614Z,3.64
2023-03-10T01:13:48.346Z,3.64
2023-03-10T01:16:15.553Z,3.48
2023-03-10T01:18:43.742Z,3.40
2023-03-10T01:21:21.824Z,3.09
2023-03-10T01:23:48.605Z,3.48
2023-03-10T01:26:17.236Z,3.43
2023-03-10T01:28:46.124Z,3.42
2023-03-10T01:31:12.868Z,3.53
2023-03-10T01:33:41.194Z,3.64
2023-03-10T01:36:12.574Z,3.27
2023-03-10T01:38:39.625Z,3.69
2023-03-10T01:41:07.842Z,3.88
2023-03-10T01:43:39.478Z,3.95
2023-03-10T01:46:27.876Z,3.81
2023-03-10T01:49:01.199Z,3.52
2023-03-10T01:51:29.939Z,3.94
2023-03-10T01:53:56.410Z,4.06
2023-03-10T01:56:23.186Z,4.02
2023-03-10T01:58:49.869Z,3.91
2023-03-10T02:01:17.341Z,4.33
2023-03-10T02:04:09.577Z,3.75
2023-03-10T02:06:36.376Z,3.60
2023-03-10T02:09:04.608Z,3.72
2023-03-10T02:11:31.233Z,3.83
2023-03-10T02:13:57.702Z,3.43
2023-03-10T02:16:24.309Z,3.16
2023-03-10T02:18:51.016Z,3.59
2023-03-10T02:21:17.453Z,3.54
2023-03-10T02:24:00.871Z,3.52
2023-03-10T02:26:46.198Z,3.65
2023-03-10T02:29:18.897Z,3.64
2023-03-10T02:31:46.058Z,3.32
2023-03-10T02:34:13.582Z,3.46
2023-03-10T02:36:40.129Z,3.43
2023-03-10T02:39:07.145Z,3.55
2023-03-10T02:41:37.950Z,3.73
2023-03-10T02:44:12.122Z,3.06
2023-03-10T02:46:38.748Z,3.77
2023-03-10T02:49:07.541Z,3.99
2023-03-10T02:51:36.044Z,3.98
2023-03-10T02:54:03.019Z,3.69
2023-03-10T02:56:32.214Z,3.62
2023-03-10T02:58:59.272Z,3.61
2023-03-10T03:01:26.817Z,3.55
2023-03-10T03:03:54.628Z,3.86
2023-03-10T03:06:21.421Z,3.81
2023-03-10T03:08:48.977Z,3.84
2023-03-10T03:11:17.013Z,3.83
2023-03-10T03:13:43.536Z,3.57
2023-03-10T03:16:10.571Z,3.39
2023-03-10T03:18:37.545Z,3.63
2023-03-10T03:21:10.919Z,3.69
2023-03-10T03:23:38.221Z,3.56
2023-03-10T03:26:05.738Z,3.28
2023-03-10T03:28:32.275Z,2.96
2023-03-10T03:30:59.135Z,2.95
2023-03-10T03:33:25.585Z,3.35
2023-03-10T03:35:52.092Z,3.23
2023-03-10T03:38:18.657Z,3.65
2023-03-10T03:40:45.529Z,3.36
2023-03-10T03:43:12.880Z,2.92
2023-03-10T03:45:39.533Z,3.40
2023-03-10T03:48:06.099Z,3.08
2023-03-10T03:50:32.586Z,3.06
2023-03-10T03:52:59.070Z,3.18
2023-03-10T03:55:25.543Z,2.75
2023-03-10T03:57:52.251Z,2.85
2023-03-10T04:00:22.247Z,3.12
2023-03-10T04:02:48.959Z,3.08
2023-03-10T04:05:16.251Z,2.91
2023-03-10T04:07:43.028Z,2.89
2023-03-10T04:10:11.732Z,2.88
2023-03-10T04:12:38.452Z,3.02
2023-03-10T04:15:05.700Z,3.07
2023-03-10T04:17:32.142Z,3.33
2023-03-10T04:20:06.977Z,2.79
2023-03-10T04:22:35.509Z,2.71
2023-03-10T04:25:02.705Z,2.64
2023-03-10T04:27:29.199Z,3.00
2023-03-10T04:29:55.754Z,3.00
2023-03-10T04:32:22.254Z,2.47
2023-03-10T04:34:48.748Z,3.17
2023-03-10T04:37:15.552Z,2.55
2023-03-10T04:39:42.196Z,2.98
2023-03-10T04:42:08.969Z,2.90
2023-03-10T04:44:35.528Z,2.98
2023-03-10T04:47:02.368Z,2.64
2023-03-10T04:49:29.631Z,2.74
2023-03-10T04:51:56.147Z,3.07
2023-03-10T04:54:22.629Z,2.72
2023-03-10T04:56:49.101Z,2.39
2023-03-10T04:59:15.669Z,2.62
2023-03-10T05:01:42.229Z,2.80
2023-03-10T05:04:10.177Z,2.40
2023-03-10T05:06:36.718Z,2.43
2023-03-10T05:09:04.891Z,2.69
2023-03-10T05:11:32.162Z,2.43
2023-03-10T05:13:58.749Z,2.78
2023-03-10T05:16:25.509Z,3.37
2023-03-10T05:18:52.265Z,2.99
2023-03-10T05:21:18.805Z,3.00
2023-03-10T05:23:45.246Z,2.89
2023-03-10T05:26:12.008Z,3.06
2023-03-10T05:28:38.650Z,2.83
2023-03-10T05:31:14.247Z,2.71
2023-03-10T05:33:41.156Z,2.78
2023-03-10T05:36:09.103Z,2.67
2023-03-10T05:38:36.759Z,2.44
2023-03-10T05:41:06.895Z,3.24
2023-03-10T05:43:33.391Z,2.99
2023-03-10T05:46:00.051Z,2.81
2023-03-10T05:48:26.687Z,2.32
2023-03-10T05:51:00.667Z,2.68
2023-03-10T05:53:27.765Z,2.72
2023-03-10T05:55:56.343Z,3.03
2023-03-10T05:58:24.332Z,3.24
2023-03-10T06:00:51.392Z,2.91
2023-03-10T06:03:18.632Z,2.48
2023-03-10T06:05:45.579Z,2.37
2023-03-10T06:08:12.074Z,3.07
2023-03-10T06:10:38.610Z,2.57
2023-03-10T06:13:05.145Z,2.80
2023-03-10T06:15:31.667Z,2.73
2023-03-10T06:17:58.271Z,2.37
2023-03-10T06:20:24.879Z,2.16
2023-03-10T06:22:54.628Z,2.66
2023-03-10T06:25:21.418Z,3.03
2023-03-10T06:27:48.105Z,2.82
2023-03-10T06:30:15.696Z,2.72
2023-03-10T06:32:42.373Z,2.74
2023-03-10T06:35:12.552Z,2.38
2023-03-10T06:37:39.007Z,2.74
2023-03-10T06:40:08.102Z,2.25
2023-03-10T06:42:34.623Z,2.63
2023-03-10T06:45:01.291Z,2.59
2023-03-10T06:47:27.726Z,2.49
2023-03-10T06:49:54.833Z,2.38
2023-03-10T06:52:21.418Z,2.58
2023-03-10T06:54:47.909Z,2.73
2023-03-10T06:57:14.350Z,2.29
2023-03-10T06:59:40.868Z,2.69
2023-03-10T07:02:07.535Z,2.31
2023-03-10T07:04:34.070Z,2.23
2023-03-10T07:07:00.563Z,2.65
2023-03-10T07:09:27.012Z,2.72
2023-03-10T07:11:53.483Z,2.52
2023-03-10T07:14:19.964Z,2.97
2023-03-10T07:16:46.726Z,3.07
2023-03-10T07:19:13.709Z,2.62
2023-03-10T07:21:40.316Z,2.22
2023-03-10T07:24:06.948Z,2.90
2023-03-10T07:26:33.578Z,2.68
2023-03-10T07:29:02.419Z,2.57
2023-03-10T07:31:29.205Z,2.97
2023-03-10T07:33:55.727Z,2.89
2023-03-10T07:36:22.538Z,3.47
2023-03-10T07:38:49.041Z,2.63
2023-03-10T07:41:17.952Z,3.16
2023-03-10T07:43:44.420Z,2.80
2023-03-10T07:46:12.978Z,2.81
2023-03-10T07:48:39.578Z,3.03
2023-03-10T07:51:06.301Z,2.91
2023-03-10T07:53:33.205Z,3.28
2023-03-10T07:55:59.683Z,3.50
2023-03-10T07:58:26.227Z,3.79
2023-03-10T08:00:57.111Z,2.83
2023-03-10T08:03:25.317Z,3.27
2023-03-10T08:05:52.143Z,3.07
2023-03-10T08:08:19.166Z,2.95
2023-03-10T08:10:45.855Z,3.45
2023-03-10T08:13:12.629Z,3.40
2023-03-10T08:15:40.145Z,3.51
2023-03-10T08:18:07.779Z,3.42
2023-03-10T08:20:37.879Z,3.26
2023-03-10T08:23:04.885Z,4.02
2023-03-10T08:25:31.394Z,3.95
2023-03-10T08:27:58.023Z,3.27
2023-03-10T08:30:24.655Z,3.56
2023-03-10T08:32:51.237Z,2.88
2023-03-10T08:35:18.212Z,3.29
2023-03-10T08:37:44.746Z,3.80
2023-03-10T08:40:13.828Z,3.82
2023-03-10T08:42:40.532Z,3.68
2023-03-10T08:45:08.836Z,3.53
2023-03-10T08:47:35.641Z,3.54
2023-03-10T08:50:02.285Z,3.38
2023-03-10T08:52:28.758Z,3.63
2023-03-10T08:54:55.234Z,3.45
2023-03-10T08:57:22.156Z,3.78
2023-03-10T08:59:48.656Z,3.78
2023-03-10T09:02:15.821Z,3.76
2023-03-10T09:04:42.670Z,3.35
2023-03-10T09:07:09.877Z,3.68
2023-03-10T09:09:36.600Z,3.46
2023-03-10T09:12:03.923Z,4.11
2023-03-10T09:14:30.427Z,4.24
2023-03-10T09:16:57.140Z,3.42
2023-03-10T09:19:25.312Z,4.19
2023-03-10T09:21:53.035Z,3.93
2023-03-10T09:24:19.996Z,4.12
2023-03-10T09:26:46.667Z,4.12
2023-03-10T09:29:14.185Z,4.21
2023-03-10T09:31:41.274Z,3.98
2023-03-10T09:34:08.414Z,4.14
2023-03-10T09:36:39.649Z,4.13
2023-03-10T09:39:06.235Z,3.90
2023-03-10T09:42:01.155Z,4.14
2023-03-10T09:44:47.234Z,4.15
2023-03-10T09:48:05.003Z,4.58
2023-03-10T09:50:43.984Z,4.60
2023-03-10T09:53:31.888Z,5.14
2023-03-10T09:55:58.675Z,5.05
2023-03-10T09:58:41.310Z,5.12
2023-03-10T10:01:16.019Z,4.97
2023-03-10T10:03:54.396Z,4.59
2023-03-10T10:06:28.047Z,5.03
2023-03-10T10:09:13.855Z,5.14
2023-03-10T10:11:40.339Z,4.48
2023-03-10T10:14:28.532Z,4.80
2023-03-10T10:17:47.340Z,4.72
2023-03-10T10:20:25.860Z,5.15
2023-03-10T10:22:52.373Z,4.98
2023-03-10T10:25:24.337Z,5.10
2023-03-10T10:27:53.543Z,4.79
2023-03-10T10:30:31.016Z,4.86
2023-03-10T10:32:58.429Z,4.72
2023-03-10T10:35:27.318Z,4.92
2023-03-10T10:38:18.476Z,4.48
2023-03-10T10:40:58.625Z,4.40
2023-03-10T10:43:25.231Z,4.66
2023-03-10T10:46:04.579Z,4.56
2023-03-10T10:48:46.145Z,4.58
2023-03-10T10:51:18.688Z,4.94
2023-03-10T10:53:45.909Z,4.49
2023-03-10T10:56:20.084Z,4.39
2023-03-10T10:59:31.829Z,4.48
2023-03-10T11:02:22.758Z,4.92
2023-03-10T11:04:49.431Z,4.38
2023-03-10T11:07:34.004Z,4.58
2023-03-10T11:10:00.478Z,4.64
2023-03-10T11:12:31.347Z,5.33
2023-03-10T11:15:20.332Z,5.07
2023-03-10T11:17:51.296Z,5.20
2023-03-10T11:20:30.853Z,4.81
2023-03-10T11:22:57.275Z,4.60
2023-03-10T11:25:29.440Z,5.08
2023-03-10T11:28:20.869Z,5.43
2023-03-10T11:31:26.026Z,4.76
2023-03-10T11:33:59.420Z,5.03
2023-03-10T11:36:55.526Z,5.03
2023-03-10T11:39:32.813Z,4.43
2023-03-10T11:42:05.729Z,4.90
2023-03-10T11:44:41.751Z,4.96
2023-03-10T11:47:26.458Z,4.91
2023-03-10T11:50:02.463Z,5.17
2023-03-10T11:52:29.655Z,4.61
2023-03-10T11:55:01.905Z,4.75
2023-03-10T11:57:32.633Z,4.89
2023-03-10T12:00:05.738Z,4.83
2023-03-10T12:02:46.206Z,5.14
2023-03-10T12:05:22.909Z,5.13
2023-03-10T12:07:51.967Z,4.75
2023-03-10T12:10:21.246Z,4.72
2023-03-10T12:12:49.824Z,4.69
2023-03-10T12:15:36.947Z,5.18
2023-03-10T12:18:04.762Z,4.72
2023-03-10T12:20:33.118Z,5.19
2023-03-10T12:22:59.581Z,5.44
2023-03-10T12:25:29.296Z,6.15
2023-03-10T12:28:17.143Z,5.24
2023-03-10T12:30:46.880Z,5.66
2023-03-10T12:33:41.245Z,5.13
2023-03-10T12:36:32.655Z,6.00
2023-03-10T12:39:01.000Z,5.64
2023-03-10T12:41:27.418Z,5.35
2023-03-10T12:43:57.697Z,6.28
2023-03-10T12:46:40.685Z,5.39
2023-03-10T12:49:13.448Z,5.68
2023-03-10T12:51:44.688Z,5.91
2023-03-10T12:54:32.406Z,6.36
2023-03-10T12:57:10.127Z,5.31
2023-03-10T12:59:59.847Z,5.19
2023-03-10T13:02:49.098Z,5.42
2023-03-10T13:05:22.864Z,5.68
2023-03-10T13:07:52.322Z,5.50
2023-03-10T13:10:22.877Z,5.31
2023-03-10T13:12:51.578Z,5.68
2023-03-10T13:15:24.940Z,5.98
2023-03-10T13:17:52.335Z,5.94
2023-03-10T13:20:19.486Z,5.80
2023-03-10T13:22:57.070Z,6.66
2023-03-10T13:25:24.867Z,5.93
2023-03-10T13:27:52.552Z,5.59
2023-03-10T13:30:24.233Z,5.49
2023-03-10T13:33:02.057Z,5.79
2023-03-10T13:35:36.904Z,6.01
2023-03-10T13:38:11.892Z,5.51
2023-03-10T13:40:41.600Z,5.77
2023-03-10T13:43:36.974Z,5.33
2023-03-10T13:46:09.703Z,5.18
2023-03-10T13:48:36.819Z,5.91
2023-03-10T13:51:17.259Z,5.29
2023-03-10T13:53:44.459Z,5.59
2023-03-10T13:56:21.511Z,5.18
2023-03-10T13:58:49.185Z,5.38
2023-03-10T14:01:25.084Z,5.33
2023-03-10T14:04:05.974Z,5.92
2023-03-10T14:06:32.582Z,5.25
2023-03-10T14:09:31.611Z,5.22
2023-03-10T14:11:58.082Z,5.70
2023-03-10T14:14:31.711Z,5.50
2023-03-10T14:17:06.790Z,5.72
2023-03-10T14:19:47.751Z,5.84
2023-03-10T14:22:25.797Z,5.15
2023-03-10T14:24:52.332Z,4.80
2023-03-10T14:27:19.281Z,5.05
2023-03-10T14:29:50.936Z,5.32
2023-03-10T14:32:17.901Z,5.23
2023-03-10T14:34:44.808Z,5.11
2023-03-10T14:37:11.301Z,5.15
2023-03-10T14:39:37.816Z,5.18
2023-03-10T14:42:04.718Z,4.79
2023-03-10T14:44:31.919Z,5.08
2023-03-10T14:46:59.565Z,5.77
2023-03-10T14:49:27.304Z,5.04
2023-03-10T14:51:54.071Z,4.71
2023-03-10T14:54:23.835Z,4.79
2023-03-10T14:56:59.827Z,4.95
2023-03-10T14:59:28.281Z,5.01
2023-03-10T15:01:58.675Z,4.71
2023-03-10T15:04:26.004Z,4.46
2023-03-10T15:06:53.091Z,4.82
2023-03-10T15:09:19.946Z,4.58
2023-03-10T15:11:46.564Z,4.42
2023-03-10T15:14:18.858Z,4.54
2023-03-10T15:16:45.620Z,4.02
2023-03-10T15:19:18.672Z,4.62
2023-03-10T15:21:45.106Z,4.71
2023-03-10T15:24:11.590Z,4.55
2023-03-10T15:26:38.082Z,4.61
2023-03-10T15:29:04.861Z,4.48
2023-03-10T15:31:31.513Z,4.23
2023-03-10T15:33:58.048Z,4.54
2023-03-10T15:36:24.487Z,4.97
2023-03-10T15:38:52.840Z,4.61
2023-03-10T15:41:19.439Z,4.35
2023-03-10T15:43:45.937Z,4.79
2023-03-10T15:46:12.623Z,4.56
2023-03-10T15:48:39.499Z,4.80
2023-03-10T15:51:10.752Z,5.11
2023-03-10T15:53:37.406Z,4.65
2023-03-10T15:56:08.183Z,4.19
2023-03-10T15:58:35.168Z,4.30
2023-03-10T16:01:09.771Z,4.51
2023-03-10T16:03:38.339Z,3.94
2023-03-10T16:06:05.982Z,4.05
2023-03-10T16:08:37.289Z,4.15
2023-03-10T16:11:06.427Z,4.60
2023-03-10T16:13:39.518Z,4.04
2023-03-10T16:16:07.599Z,4.50
2023-03-10T16:18:34.498Z,3.91
2023-03-10T16:21:02.292Z,4.19
2023-03-10T16:23:31.132Z,4.15
2023-03-10T16:26:11.235Z,3.97
2023-03-10T16:28:40.498Z,4.34
2023-03-10T16:31:07.400Z,3.79
2023-03-10T16:33:34.305Z,4.17
2023-03-10T16:36:02.262Z,4.02
2023-03-10T16:38:29.927Z,4.00
2023-03-10T16:40:57.995Z,3.92
2023-03-10T16:43:27.964Z,4.23
2023-03-10T16:46:13.918Z,4.42
2023-03-10T16:48:43.489Z,4.64
2023-03-10T16:51:23.704Z,3.74
2023-03-10T16:53:50.782Z,3.79
2023-03-10T16:56:17.488Z,3.64
2023-03-10T16:58:45.331Z,4.01
2023-03-10T17:01:11.903Z,3.78
2023-03-10T17:03:41.492Z,3.83
2023-03-10T17:06:13.471Z,3.77
2023-03-10T17:08:40.734Z,4.45
2023-03-10T17:11:20.791Z,3.78
2023-03-10T17:13:49.564Z,3.96
2023-03-10T17:16:18.489Z,3.78
2023-03-10T17:18:44.975Z,4.02
2023-03-10T17:21:22.937Z,4.11
2023-03-10T17:23:50.489Z,3.96
2023-03-10T17:26:18.369Z,3.97
2023-03-10T17:28:46.879Z,3.75
2023-03-10T17:31:16.037Z,4.13
2023-03-10T17:33:43.589Z,3.65
2023-03-10T17:36:12.608Z,4.57
2023-03-10T17:38:39.815Z,3.86
2023-03-10T17:41:07.686Z,3.94
2023-03-10T17:43:35.001Z,4.04
2023-03-10T17:46:13.750Z,4.11
2023-03-10T17:48:40.302Z,3.56
2023-03-10T17:51:07.022Z,3.63
2023-03-10T17:53:33.591Z,3.87
2023-03-10T17:56:05.043Z,3.54
2023-03-10T17:58:32.316Z,3.46
2023-03-10T18:00:58.834Z,3.77
2023-03-10T18:03:25.436Z,3.10
2023-03-10T18:05:51.987Z,3.45
2023-03-10T18:08:18.744Z,3.39
2023-03-10T18:10:45.290Z,3.20
2023-03-10T18:13:11.926Z,3.16
2023-03-10T18:15:38.776Z,3.43
2023-03-10T18:18:05.360Z,3.48
2023-03-10T18:20:32.071Z,3.25
2023-03-10T18:22:59.226Z,3.33
2023-03-10T18:25:25.765Z,3.02
2023-03-10T18:27:52.208Z,3.18
2023-03-10T18:30:20.341Z,3.26
2023-03-10T18:32:46.907Z,2.64
2023-03-10T18:35:13.500Z,3.01
2023-03-10T18:37:39.987Z,2.71
2023-03-10T18:40:09.224Z,2.80
2023-03-10T18:42:35.774Z,2.79
2023-03-10T18:45:02.503Z,2.97
2023-03-10T18:47:28.980Z,3.15
2023-03-10T18:49:55.451Z,3.14
2023-03-10T18:52:22.045Z,2.99
2023-03-10T18:54:48.797Z,3.23
2023-03-10T18:57:15.740Z,3.50
2023-03-10T18:59:44.917Z,2.92
2023-03-10T19:02:15.003Z,3.02
2023-03-10T19:04:41.524Z,3.22
2023-03-10T19:07:08.542Z,2.94
2023-03-10T19:09:35.645Z,2.77
2023-03-10T19:12:02.198Z,2.86
2023-03-10T19:14:28.670Z,3.22
2023-03-10T19:16:55.217Z,2.66
2023-03-10T19:19:21.743Z,2.55
2023-03-10T19:21:48.585Z,3.03
2023-03-10T19:24:15.100Z,3.01
2023-03-10T19:26:43.419Z,2.91
2023-03-10T19:29:10.055Z,2.84
2023-03-10T19:31:36.593Z,2.95
2023-03-10T19:34:03.324Z,2.82
2023-03-10T19:36:29.904Z,2.46
2023-03-10T19:38:56.388Z,2.52
2023-03-10T19:41:23.589Z,2.95
2023-03-10T19:43:51.158Z,2.71
2023-03-10T19:46:18.479Z,3.02
2023-03-10T19:48:45.499Z,3.03
2023-03-10T19:51:21.470Z,2.98
2023-03-10T19:53:48.057Z,2.71
2023-03-10T19:56:17.472Z,2.25
2023-03-10T19:58:45.836Z,1.98
2023-03-10T20:01:14.318Z,2.37
2023-03-10T20:03:41.192Z,2.20
2023-03-10T20:06:07.990Z,2.68
2023-03-10T20:08:34.731Z,2.57
2023-03-10T20:11:02.328Z,2.90
2023-03-10T20:13:29.932Z,3.15
2023-03-10T20:15:57.313Z,2.70
2023-03-10T20:18:24.085Z,2.68
2023-03-10T20:20:51.028Z,2.49
2023-03-10T20:23:17.838Z,2.47
2023-03-10T20:25:45.586Z,2.48
2023-03-10T20:28:13.116Z,2.37
2023-03-10T20:30:41.129Z,2.21
2023-03-10T20:33:07.916Z,2.04
2023-03-10T20:35:34.752Z,2.69
2023-03-10T20:38:02.122Z,2.29
2023-03-10T20:40:28.686Z,2.46
2023-03-10T20:42:56.812Z,2.52
2023-03-10T20:45:23.642Z,2.00
2023-03-10T20:47:50.292Z,2.02
2023-03-10T20:50:17.491Z,2.08
2023-03-10T20:52:44.556Z,2.35
2023-03-10T20:55:20.973Z,2.19
2023-03-10T20:57:48.794Z,2.46
2023-03-10T21:00:16.763Z,2.33
2023-03-10T21:02:44.568Z,2.45
2023-03-10T21:05:11.929Z,2.21
2023-03-10T21:07:38.575Z,2.15
2023-03-10T21:10:07.395Z,2.21
2023-03-10T21:12:33.934Z,2.04
2023-03-10T21:15:00.667Z,2.52
2023-03-10T21:17:27.876Z,2.24
2023-03-10T21:19:54.834Z,2.10
2023-03-10T21:22:21.594Z,2.20
2023-03-10T21:24:49.153Z,2.27
2023-03-10T21:27:16.349Z,2.44
2023-03-10T21:29:43.096Z,2.36
2023-03-10T21:32:09.588Z,2.71
2023-03-10T21:34:36.032Z,2.50
2023-03-10T21:37:02.600Z,2.50
2023-03-10T21:39:29.152Z,2.05
2023-03-10T21:41:55.605Z,2.26
2023-03-10T21:44:22.112Z,2.89
2023-03-10T21:46:50.281Z,2.85
2023-03-10T21:49:17.183Z,2.39
2023-03-10T21:51:43.621Z,2.56
2023-03-10T21:54:10.378Z,2.56
2023-03-10T21:56:36.809Z,2.88
2023-03-10T21:59:03.308Z,2.38
2023-03-10T22:01:30.009Z,2.42
2023-03-10T22:03:56.729Z,2.70
2023-03-10T22:06:23.290Z,2.50
2023-03-10T22:08:49.808Z,2.12
2023-03-10T22:11:17.014Z,2.49
2023-03-10T22:13:43.575Z,2.08
2023-03-10T22:16:14.256Z,2.59
2023-03-10T22:18:40.753Z,2.63
2023-03-10T22:21:07.222Z,2.62
2023-03-10T22:23:33.726Z,2.41
2023-03-10T22:26:00.196Z,2.57
2023-03-10T22:28:26.700Z,2.06
2023-03-10T22:30:53.382Z,2.78
2023-03-10T22:33:19.934Z,2.47
2023-03-10T22:35:51.919Z,2.35
2023-03-10T22:38:20.352Z,2.52
2023-03-10T22:40:46.971Z,2.28
2023-03-10T22:43:13.848Z,2.33
2023-03-10T22:45:41.802Z,2.43
2023-03-10T22:48:08.513Z,2.07
2023-03-10T22:50:38.556Z,2.07
2023-03-10T22:53:07.679Z,2.21
2023-03-10T22:55:37.040Z,1.98
2023-03-10T22:58:05.324Z,2.00
2023-03-10T23:00:32.708Z,2.18
2023-03-10T23:02:59.601Z,2.20
2023-03-10T23:05:26.994Z,2.39
2023-03-10T23:07:54.050Z,2.09
2023-03-10T23:10:26.393Z,1.81
2023-03-10T23:12:53.791Z,2.14
2023-03-10T23:15:25.316Z,2.12
2023-03-10T23:17:55.883Z,2.05
2023-03-10T23:20:26.976Z,1.96
2023-03-10T23:22:54.273Z,2.13
2023-03-10T23:25:24.080Z,2.37
2023-03-10T23:27:50.561Z,1.91
2023-03-10T23:30:17.614Z,2.29
2023-03-10T23:32:45.685Z,2.01
2023-03-10T23:35:13.847Z,1.80
2023-03-10T23:37:40.364Z,2.13
2023-03-10T23:40:11.604Z,2.17
2023-03-10T23:42:38.731Z,2.13
2023-03-10T23:45:06.960Z,2.26
2023-03-10T23:47:34.719Z,2.51
2023-03-10T23:50:01.504Z,2.26
2023-03-10T23:52:28.071Z,2.00
2023-03-10T23:54:54.678Z,2.35
2023-03-10T23:57:21.121Z,1.97
2023-03-10T23:59:48.544Z,2.10
